sensor_id;sensor_type;location;lat;lon;timestamp;pressure;altitude;pressure_sealevel;temperature;humidity
68873;BME280;55907;50.806;12.882;2023-06-01T00:00:54;977.0;;;13.6;68.8
68873;BME280;55907;50.806;12.882;2023-06-01T00:03:55;977.0;;;13.5;69.3
68873;BME280;55907;50.806;12.882;2023-06-01T00:06:57;977.0;;;13.5;68.8
68873;BME280;55907;50.806;12.882;2023-06-01T00:19:03;977.0;;;13.3;69.4
68873;BME280;55907;50.806;12.882;2023-06-01T00:25:07;977.0;;;13.2;69.8
68873;BME280;55907;50.806;12.882;2023-06-01T00:28:08;977.1;;;13.2;69.3
68873;BME280;55907;50.806;12.882;2023-06-01T00:31:09;977.1;;;13.1;69.7
68873;BME280;55907;50.806;12.882;2023-06-01T00:34:11;977.0;;;13.1;70.5
68873;BME280;55907;50.806;12.882;2023-06-01T00:37:12;977.1;;;13.1;70.6
68873;BME280;55907;50.806;12.882;2023-06-01T00:43:15;976.9;;;13.1;70.3
68873;BME280;55907;50.806;12.882;2023-06-01T00:46:17;976.9;;;13.0;70.9
68873;BME280;55907;50.806;12.882;2023-06-01T00:49:18;976.9;;;13.0;70.6
68873;BME280;55907;50.806;12.882;2023-06-01T00:52:21;976.9;;;13.0;71.7
68873;BME280;55907;50.806;12.882;2023-06-01T00:55:21;976.8;;;12.9;73.0
68873;BME280;55907;50.806;12.882;2023-06-01T00:58:23;976.9;;;12.9;71.5
68873;BME280;55907;50.806;12.882;2023-06-01T01:01:24;976.9;;;12.9;71.3
68873;BME280;55907;50.806;12.882;2023-06-01T01:04:26;976.8;;;12.9;72.3
68873;BME280;55907;50.806;12.882;2023-06-01T01:10:31;976.8;;;12.9;72.3
68873;BME280;55907;50.806;12.882;2023-06-01T01:13:34;976.8;;;12.8;72.3
68873;BME280;55907;50.806;12.882;2023-06-01T01:19:50;976.8;;;12.7;73.0
68873;BME280;55907;50.806;12.882;2023-06-01T01:22:43;976.8;;;12.7;74.0
68873;BME280;55907;50.806;12.882;2023-06-01T01:25:52;976.8;;;12.7;73.4
68873;BME280;55907;50.806;12.882;2023-06-01T01:28:41;976.8;;;12.6;73.0
68873;BME280;55907;50.806;12.882;2023-06-01T01:31:40;976.8;;;12.6;74.0
68873;BME280;55907;50.806;12.882;2023-06-01T01:34:43;976.7;;;12.6;73.7
68873;BME280;55907;50.806;12.882;2023-06-01T01:37:49;976.7;;;12.5;74.5
68873;BME280;55907;50.806;12.882;2023-06-01T01:43:45;976.8;;;12.4;74.8
68873;BME280;55907;50.806;12.882;2023-06-01T01:46:52;976.8;;;12.4;74.6
68873;BME280;55907;50.806;12.882;2023-06-01T01:49:51;976.8;;;12.3;75.4
68873;BME280;55907;50.806;12.882;2023-06-01T01:52:51;976.8;;;12.3;75.4
68873;BME280;55907;50.806;12.882;2023-06-01T01:55:52;976.7;;;12.2;75.3
68873;BME280;55907;50.806;12.882;2023-06-01T01:58:53;976.7;;;12.2;73.5
68873;BME280;55907;50.806;12.882;2023-06-01T02:01:55;976.7;;;12.2;74.1
68873;BME280;55907;50.806;12.882;2023-06-01T02:07:57;976.6;;;12.2;73.1
68873;BME280;55907;50.806;12.882;2023-06-01T02:14:01;976.5;;;12.1;unknown
68873;BME280;55907;50.806;12.882;2023-06-01T02:17:02;976.6;;;12.1;73.2
68873;BME280;55907;50.806;12.882;2023-06-01T02:20:04;976.6;;;12.1;73.8
68873;BME280;55907;50.806;12.882;2023-06-01T02:23:05;976.5;;;12.1;72.5
68873;BME280;55907;50.806;12.882;2023-06-01T02:26:07;976.5;;;12.1;73.4
68873;BME280;55907;50.806;12.882;2023-06-01T02:29:08;976.5;;;12.0;74.4
68873;BME280;55907;50.806;12.882;2023-06-01T02:32:10;976.5;;;12.0;74.2
68873;BME280;55907;50.806;12.882;2023-06-01T02:41:14;976.5;;;11.8;74.6
68873;BME280;55907;50.806;12.882;2023-06-01T02:44:16;976.4;;;11.8;75.4
68873;BME280;55907;50.806;12.882;2023-06-01T02:47:17;976.4;;;11.8;75.3
68873;BME280;55907;50.806;12.882;2023-06-01T02:50:19;976.4;;;11.7;75.4
68873;BME280;55907;50.806;12.882;2023-06-01T02:53:20;976.4;;;11.7;76.2
68873;BME280;55907;50.806;12.882;2023-06-01T02:56:22;976.4;;;11.6;77.0
68873;BME280;55907;50.806;12.882;2023-06-01T02:59:23;976.3;;;11.6;76.9
68873;BME280;55907;50.806;12.882;2023-06-01T03:02:25;976.3;;;11.6;75.7
68873;BME280;55907;50.806;12.882;2023-06-01T03:08:28;976.3;;;11.6;75.8
68873;BME280;55907;50.806;12.882;2023-06-01T03:14:31;976.3;;;11.6;76.1
68873;BME280;55907;50.806;12.882;2023-06-01T03:17:32;976.3;;;11.6;76.4
68873;BME280;55907;50.806;12.882;2023-06-01T03:20:34;976.3;;;11.6;75.8
68873;BME280;55907;50.806;12.882;2023-06-01T03:32:41;976.5;;;11.9;72.9
68873;BME280;55907;50.806;12.882;2023-06-01T03:41:45;976.4;;;12.1;71.4
68873;BME280;55907;50.806;12.882;2023-06-01T03:44:46;976.4;;;12.2;70.3
68873;BME280;55907;50.806;12.882;2023-06-01T03:47:48;976.4;;;12.3;70.3
68873;BME280;55907;50.806;12.882;2023-06-01T03:50:49;976.5;;;12.4;70.3
68873;BME280;55907;50.806;12.882;2023-06-01T03:53:51;976.5;;;12.6;70.3
68873;BME280;55907;50.806;12.882;2023-06-01T03:56:52;976.5;;;12.7;68.6
68873;BME280;55907;50.806;12.882;2023-06-01T04:02:57;976.4;;;13.0;67.8
68873;BME280;55907;50.806;12.882;2023-06-01T04:05:57;976.5;;;13.1;66.9
68873;BME280;55907;50.806;12.882;2023-06-01T04:08:58;976.4;;;13.3;66.6
68873;BME280;55907;50.806;12.882;2023-06-01T04:21:04;976.5;;;13.9;65.2
68873;BME280;55907;50.806;12.882;2023-06-01T04:24:06;976.4;;;14.0;64.5
68873;BME280;55907;50.806;12.882;2023-06-01T04:27:07;976.4;;;14.2;64.2
68873;BME280;55907;50.806;12.882;2023-06-01T04:33:10;976.4;;;14.9;62.5
68873;BME280;55907;50.806;12.882;2023-06-01T04:39:13;976.5;;;16.4;57.4
68873;BME280;55907;50.806;12.882;2023-06-01T04:42:14;976.5;;;17.3;55.7
68873;BME280;55907;50.806;12.882;2023-06-01T04:45:16;976.6;;;18.2;53.4
68873;BME280;55907;50.806;12.882;2023-06-01T04:48:17;976.5;;;19.2;49.3
68873;BME280;55907;50.806;12.882;2023-06-01T04:54:20;976.5;;;21.4;43.6
68873;BME280;55907;50.806;12.882;2023-06-01T04:57:22;976.6;;;22.5;41.3
68873;BME280;55907;50.806;12.882;2023-06-01T05:00:23;976.5;;;23.3;39.6
68873;BME280;55907;50.806;12.882;2023-06-01T05:03:24;976.5;;;24.0;37.5
68873;BME280;55907;50.806;12.882;2023-06-01T05:06:26;976.5;;;24.7;36.3
68873;BME280;55907;50.806;12.882;2023-06-01T05:18:31;976.5;;;23.6;38.3
68873;BME280;55907;50.806;12.882;2023-06-01T05:21:33;976.5;;;23.3;39.8
68873;BME280;55907;50.806;12.882;2023-06-01T05:24:34;976.5;;;23.1;39.8
68873;BME280;55907;50.806;12.882;2023-06-01T05:27:36;976.5;;;23.5;39.7
68873;BME280;55907;50.806;12.882;2023-06-01T05:30:37;976.5;;;24.0;38.7
68873;BME280;55907;50.806;12.882;2023-06-01T05:33:38;976.5;;;24.3;37.7
68873;BME280;55907;50.806;12.882;2023-06-01T05:36:40;976.5;;;24.2;38.2
68873;BME280;55907;50.806;12.882;2023-06-01T05:39:41;976.4;;;23.8;38.8
68873;BME280;55907;50.806;12.882;2023-06-01T05:42:42;976.4;;;23.4;38.7
68873;BME280;55907;50.806;12.882;2023-06-01T05:45:44;976.4;;;22.9;39.3
68873;BME280;55907;50.806;12.882;2023-06-01T05:48:45;976.5;;;22.4;40.1
68873;BME280;55907;50.806;12.882;2023-06-01T05:51:47;976.5;;;22.1;41.7
68873;BME280;55907;50.806;12.882;2023-06-01T05:54:48;976.5;;;21.9;42.5
68873;BME280;55907;50.806;12.882;2023-06-01T06:00:51;976.5;;;21.5;43.1
68873;BME280;55907;50.806;12.882;2023-06-01T06:09:55;976.5;;;21.4;44.3
68873;BME280;55907;50.806;12.882;2023-06-01T06:12:56;976.5;;;21.2;45.0
68873;BME280;55907;50.806;12.882;2023-06-01T06:15:58;976.5;;;21.1;44.8
68873;BME280;55907;50.806;12.882;2023-06-01T06:18:59;976.5;;;20.9;45.4
68873;BME280;55907;50.806;12.882;2023-06-01T06:22:01;976.4;;;20.8;45.7
68873;BME280;55907;50.806;12.882;2023-06-01T06:25:03;976.4;;;20.8;46.0
68873;BME280;55907;50.806;12.882;2023-06-01T06:28:03;976.4;;;20.5;45.5
68873;BME280;55907;50.806;12.882;2023-06-01T06:31:05;976.5;;;20.3;46.2
68873;BME280;55907;50.806;12.882;2023-06-01T06:37:08;976.4;;;20.2;46.8
68873;BME280;55907;50.806;12.882;2023-06-01T06:43:11;976.4;;;20.0;46.8
68873;BME280;55907;50.806;12.882;2023-06-01T06:46:12;976.4;;;20.1;46.9
68873;BME280;55907;50.806;12.882;2023-06-01T06:49:13;976.4;;;20.1;48.5
68873;BME280;55907;50.806;12.882;2023-06-01T06:52:15;976.4;;;20.2;48.4
68873;BME280;55907;50.806;12.882;2023-06-01T06:55:16;976.4;;;20.3;48.9
68873;BME280;55907;50.806;12.882;2023-06-01T06:58:17;976.3;;;20.4;47.6
68873;BME280;55907;50.806;12.882;2023-06-01T07:01:19;976.3;;;20.8;46.9
68873;BME280;55907;50.806;12.882;2023-06-01T07:04:20;976.3;;;21.1;46.1
68873;BME280;55907;50.806;12.882;2023-06-01T07:07:22;976.3;;;21.1;45.8
68873;BME280;55907;50.806;12.882;2023-06-01T07:10:23;976.4;;;21.0;45.7
68873;BME280;55907;50.806;12.882;2023-06-01T07:16:26;976.3;;;20.5;46.9
68873;BME280;55907;50.806;12.882;2023-06-01T07:19:27;976.3;;;20.1;48.3
68873;BME280;55907;50.806;12.882;2023-06-01T07:22:29;976.3;;;19.9;48.5
68873;BME280;55907;50.806;12.882;2023-06-01T07:25:30;976.2;;;19.8;49.4
68873;BME280;55907;50.806;12.882;2023-06-01T07:31:33;976.2;;;20.0;49.4
68873;BME280;55907;50.806;12.882;2023-06-01T07:34:34;976.2;;;20.0;49.0
68873;BME280;55907;50.806;12.882;2023-06-01T07:37:36;976.2;;;19.9;49.6
68873;BME280;55907;50.806;12.882;2023-06-01T07:40:38;976.2;;;19.9;49.3
68873;BME280;55907;50.806;12.882;2023-06-01T07:43:39;976.2;;;19.8;51.2
68873;BME280;55907;50.806;12.882;2023-06-01T07:46:40;976.3;;;19.8;49.7
68873;BME280;55907;50.806;12.882;2023-06-01T07:49:42;976.2;;;19.8;49.2
68873;BME280;55907;50.806;12.882;2023-06-01T07:52:43;976.2;;;19.9;48.8
68873;BME280;55907;50.806;12.882;2023-06-01T07:55:45;976.2;;;20.0;48.9
68873;BME280;55907;50.806;12.882;2023-06-01T07:58:46;976.1;;;20.1;49.0
68873;BME280;55907;50.806;12.882;2023-06-01T08:01:48;976.1;;;20.2;47.8
68873;BME280;55907;50.806;12.882;2023-06-01T08:04:49;976.1;;;20.3;46.9
68873;BME280;55907;50.806;12.882;2023-06-01T08:07:50;976.1;;;20.5;46.8
68873;BME280;55907;50.806;12.882;2023-06-01T08:10:52;976.0;;;20.6;47.3
68873;BME280;55907;50.806;12.882;2023-06-01T08:13:53;976.0;;;20.8;47.4
68873;BME280;55907;50.806;12.882;2023-06-01T08:19:56;976.1;;;21.2;46.4
68873;BME280;55907;50.806;12.882;2023-06-01T08:25:59;976.0;;;21.6;46.1
68873;BME280;55907;50.806;12.882;2023-06-01T08:29:00;976.0;;;21.8;46.6
68873;BME280;55907;50.806;12.882;2023-06-01T08:32:01;976.0;;;22.0;45.6
68873;BME280;55907;50.806;12.882;2023-06-01T08:35:03;975.9;;;22.4;45.6
68873;BME280;55907;50.806;12.882;2023-06-01T08:38:04;975.9;;;23.0;43.9
68873;BME280;55907;50.806;12.882;2023-06-01T08:41:11;975.9;;;23.8;41.8
68873;BME280;55907;50.806;12.882;2023-06-01T08:44:08;975.8;;;25.0;40.4
68873;BME280;55907;50.806;12.882;2023-06-01T08:47:09;975.8;;;26.2;38.0
68873;BME280;55907;50.806;12.882;2023-06-01T08:50:10;975.8;;;27.4;37.8
68873;BME280;55907;50.806;12.882;2023-06-01T08:53:11;975.8;;;28.1;33.8
68873;BME280;55907;50.806;12.882;2023-06-01T08:56:13;975.8;;;28.4;35.1
68873;BME280;55907;50.806;12.882;2023-06-01T08:59:14;975.8;;;28.7;33.8
68873;BME280;55907;50.806;12.882;2023-06-01T09:02:15;975.8;;;28.9;33.1
68873;BME280;55907;50.806;12.882;2023-06-01T09:05:16;975.7;;;29.5;32.6
68873;BME280;55907;50.806;12.882;2023-06-01T09:08:18;975.7;;;29.8;30.9
68873;BME280;55907;50.806;12.882;2023-06-01T09:11:19;975.7;;;29.8;30.2
68873;BME280;55907;50.806;12.882;2023-06-01T09:14:21;975.7;;;29.5;30.8
68873;BME280;55907;50.806;12.882;2023-06-01T09:17:23;975.7;;;29.8;29.2
68873;BME280;55907;50.806;12.882;2023-06-01T09:20:24;975.7;;;30.0;30.5
68873;BME280;55907;50.806;12.882;2023-06-01T09:23:25;975.7;;;30.1;30.1
68873;BME280;55907;50.806;12.882;2023-06-01T09:26:26;975.7;;;30.3;28.3
68873;BME280;55907;50.806;12.882;2023-06-01T09:29:27;975.7;;;30.8;28.6
68873;BME280;55907;50.806;12.882;2023-06-01T09:32:28;975.6;;;31.0;26.2
68873;BME280;55907;50.806;12.882;2023-06-01T09:35:38;975.6;;;30.7;26.8
68873;BME280;55907;50.806;12.882;2023-06-01T09:38:31;975.6;;;30.6;27.9
68873;BME280;55907;50.806;12.882;2023-06-01T09:41:44;975.6;;;30.7;26.3
68873;BME280;55907;50.806;12.882;2023-06-01T09:44:35;975.5;;;30.2;25.5
68873;BME280;55907;50.806;12.882;2023-06-01T09:47:35;975.6;;;30.2;26.6
68873;BME280;55907;50.806;12.882;2023-06-01T09:50:38;975.5;;;30.0;27.7
68873;BME280;55907;50.806;12.882;2023-06-01T09:53:41;975.5;;;29.7;28.3
68873;BME280;55907;50.806;12.882;2023-06-01T09:56:43;975.4;;;29.2;28.3
68873;BME280;55907;50.806;12.882;2023-06-01T09:59:41;975.5;;;28.6;29.9
68873;BME280;55907;50.806;12.882;2023-06-01T10:02:42;975.5;;;28.1;31.3
68873;BME280;55907;50.806;12.882;2023-06-01T10:05:44;975.4;;;28.0;31.2
68873;BME280;55907;50.806;12.882;2023-06-01T10:08:45;975.4;;;28.3;31.0
68873;BME280;55907;50.806;12.882;2023-06-01T10:17:49;975.3;;;29.4;29.8
68873;BME280;55907;50.806;12.882;2023-06-01T10:20:50;975.3;;;29.4;30.2
68873;BME280;55907;50.806;12.882;2023-06-01T10:27:00;975.3;;;28.9;29.9
68873;BME280;55907;50.806;12.882;2023-06-01T10:29:54;975.3;;;28.7;29.4
68873;BME280;55907;50.806;12.882;2023-06-01T10:45:01;975.2;;;28.1;31.4
68873;BME280;55907;50.806;12.882;2023-06-01T10:51:17;975.2;;;28.1;29.9
68873;BME280;55907;50.806;12.882;2023-06-01T10:57:18;975.2;;;27.6;29.9
68873;BME280;55907;50.806;12.882;2023-06-01T11:00:10;975.2;;;27.5;30.2
68873;BME280;55907;50.806;12.882;2023-06-01T11:06:24;975.1;;;27.2;31.5
68873;BME280;55907;50.806;12.882;2023-06-01T11:09:12;975.1;;;26.8;32.1
68873;BME280;55907;50.806;12.882;2023-06-01T11:12:13;975.1;;;26.6;33.3
68873;BME280;55907;50.806;12.882;2023-06-01T11:21:19;975.0;;;26.7;32.7
68873;BME280;55907;50.806;12.882;2023-06-01T11:24:19;975.0;;;26.7;31.8
68873;BME280;55907;50.806;12.882;2023-06-01T11:33:23;974.9;;;26.4;33.1
68873;BME280;55907;50.806;12.882;2023-06-01T11:36:24;974.8;;;26.0;33.4
68873;BME280;55907;50.806;12.882;2023-06-01T11:39:26;974.8;;;25.6;34.9
68873;BME280;55907;50.806;12.882;2023-06-01T11:42:34;974.8;;;25.3;35.8
68873;BME280;55907;50.806;12.882;2023-06-01T11:45:28;974.8;;;25.4;35.5
68873;BME280;55907;50.806;12.882;2023-06-01T11:48:30;974.7;;;25.5;35.7
68873;BME280;55907;50.806;12.882;2023-06-01T11:54:32;974.8;;;25.1;36.2
68873;BME280;55907;50.806;12.882;2023-06-01T12:03:45;974.6;;;25.3;36.6
68873;BME280;55907;50.806;12.882;2023-06-01T12:09:39;974.7;;;25.6;35.6
68873;BME280;55907;50.806;12.882;2023-06-01T12:12:41;974.7;;;25.6;35.5
68873;BME280;55907;50.806;12.882;2023-06-01T12:15:42;974.6;;;25.9;36.1
68873;BME280;55907;50.806;12.882;2023-06-01T12:18:43;974.6;;;25.9;35.2
68873;BME280;55907;50.806;12.882;2023-06-01T12:21:46;974.6;;;25.5;37.0
68873;BME280;55907;50.806;12.882;2023-06-01T12:24:46;974.6;;;25.4;37.1
68873;BME280;55907;50.806;12.882;2023-06-01T12:27:59;974.6;;;25.9;38.1
68873;BME280;55907;50.806;12.882;2023-06-01T12:30:49;974.5;;;26.1;37.3
68873;BME280;55907;50.806;12.882;2023-06-01T12:33:50;974.6;;;26.0;37.1
68873;BME280;55907;50.806;12.882;2023-06-01T12:36:52;974.5;;;25.6;35.7
68873;BME280;55907;50.806;12.882;2023-06-01T12:39:53;974.5;;;25.4;36.6
68873;BME280;55907;50.806;12.882;2023-06-01T12:42:54;974.4;;;25.3;37.0
68873;BME280;55907;50.806;12.882;2023-06-01T12:49:11;974.4;;;25.6;34.7
68873;BME280;55907;50.806;12.882;2023-06-01T12:51:58;974.3;;;25.9;34.7
68873;BME280;55907;50.806;12.882;2023-06-01T12:55:00;974.3;;;25.9;35.8
68873;BME280;55907;50.806;12.882;2023-06-01T12:58:01;974.3;;;25.7;36.2
68873;BME280;55907;50.806;12.882;2023-06-01T13:01:03;974.2;;;26.0;34.8
68873;BME280;55907;50.806;12.882;2023-06-01T13:04:04;974.2;;;26.3;34.7
68873;BME280;55907;50.806;12.882;2023-06-01T13:10:07;974.1;;;26.6;31.2
68873;BME280;55907;50.806;12.882;2023-06-01T13:22:12;974.1;;;25.4;30.9
68873;BME280;55907;50.806;12.882;2023-06-01T13:25:14;974.1;;;25.5;31.4
68873;BME280;55907;50.806;12.882;2023-06-01T13:28:15;974.1;;;25.5;31.2
68873;BME280;55907;50.806;12.882;2023-06-01T13:31:16;974.0;;;25.1;33.2
68873;BME280;55907;50.806;12.882;2023-06-01T13:34:18;974.0;;;24.9;33.3
68873;BME280;55907;50.806;12.882;2023-06-01T13:37:19;974.0;;;24.9;34.6
68873;BME280;55907;50.806;12.882;2023-06-01T13:40:21;974.0;;;24.9;33.3
68873;BME280;55907;50.806;12.882;2023-06-01T13:46:23;973.9;;;24.5;35.1
68873;BME280;55907;50.806;12.882;2023-06-01T13:49:25;973.9;;;24.3;35.9
68873;BME280;55907;50.806;12.882;2023-06-01T13:55:27;973.9;;;24.3;37.2
68873;BME280;55907;50.806;12.882;2023-06-01T13:58:29;973.9;;;24.5;36.2
68873;BME280;55907;50.806;12.882;2023-06-01T14:01:30;973.8;;;24.6;36.1
68873;BME280;55907;50.806;12.882;2023-06-01T14:04:32;973.8;;;24.6;36.1
68873;BME280;55907;50.806;12.882;2023-06-01T14:07:33;973.8;;;24.7;35.6
68873;BME280;55907;50.806;12.882;2023-06-01T14:10:34;973.8;;;24.6;35.4
68873;BME280;55907;50.806;12.882;2023-06-01T14:13:36;973.8;;;24.8;36.5
68873;BME280;55907;50.806;12.882;2023-06-01T14:19:39;973.7;;;25.2;34.8
68873;BME280;55907;50.806;12.882;2023-06-01T14:22:40;973.6;;;25.2;31.2
68873;BME280;55907;50.806;12.882;2023-06-01T14:25:41;973.7;;;24.9;31.3
68873;BME280;55907;50.806;12.882;2023-06-01T14:31:44;973.6;;;24.5;30.6
68873;BME280;55907;50.806;12.882;2023-06-01T14:34:46;973.5;;;24.5;29.5
68873;BME280;55907;50.806;12.882;2023-06-01T14:37:47;973.5;;;24.5;28.4
68873;BME280;55907;50.806;12.882;2023-06-01T14:40:48;973.5;;;24.5;28.1
68873;BME280;55907;50.806;12.882;2023-06-01T14:43:50;973.5;;;24.4;28.5
68873;BME280;55907;50.806;12.882;2023-06-01T14:46:51;973.5;;;24.4;30.0
68873;BME280;55907;50.806;12.882;2023-06-01T14:49:53;973.4;;;24.6;30.6
68873;BME280;55907;50.806;12.882;2023-06-01T14:52:54;973.4;;;24.7;31.2
68873;BME280;55907;50.806;12.882;2023-06-01T14:55:55;973.4;;;24.7;32.1
68873;BME280;55907;50.806;12.882;2023-06-01T15:08:01;973.3;;;24.4;32.6
68873;BME280;55907;50.806;12.882;2023-06-01T15:11:02;973.3;;;24.1;33.3
68873;BME280;55907;50.806;12.882;2023-06-01T15:14:04;973.2;;;24.1;34.2
68873;BME280;55907;50.806;12.882;2023-06-01T15:17:05;973.3;;;24.1;34.6
68873;BME280;55907;50.806;12.882;2023-06-01T15:23:08;973.2;;;24.0;35.8
68873;BME280;55907;50.806;12.882;2023-06-01T15:26:09;973.1;;;23.9;36.4
68873;BME280;55907;50.806;12.882;2023-06-01T15:29:11;973.1;;;23.8;36.7
68873;BME280;55907;50.806;12.882;2023-06-01T15:32:12;973.0;;;23.6;37.0
68873;BME280;55907;50.806;12.882;2023-06-01T15:35:13;973.1;;;23.6;37.4
68873;BME280;55907;50.806;12.882;2023-06-01T15:38:15;973.1;;;23.5;36.7
68873;BME280;55907;50.806;12.882;2023-06-01T15:41:16;973.1;;;23.5;36.5
68873;BME280;55907;50.806;12.882;2023-06-01T15:44:18;973.1;;;23.4;35.8
68873;BME280;55907;50.806;12.882;2023-06-01T15:50:21;973.0;;;23.5;33.2
68873;BME280;55907;50.806;12.882;2023-06-01T15:56:23;973.0;;;23.5;31.2
68873;BME280;55907;50.806;12.882;2023-06-01T16:02:26;973.0;;;23.4;31.7
68873;BME280;55907;50.806;12.882;2023-06-01T16:08:29;973.0;;;23.2;29.6
68873;BME280;55907;50.806;12.882;2023-06-01T16:11:30;972.9;;;23.1;29.4
68873;BME280;55907;50.806;12.882;2023-06-01T16:14:32;972.9;;;23.0;30.2
68873;BME280;55907;50.806;12.882;2023-06-01T16:17:33;972.9;;;23.1;31.2
68873;BME280;55907;50.806;12.882;2023-06-01T16:20:35;972.9;;;23.1;32.0
68873;BME280;55907;50.806;12.882;2023-06-01T16:23:36;972.9;;;23.0;32.0
68873;BME280;55907;50.806;12.882;2023-06-01T16:26:37;972.9;;;23.1;32.0
68873;BME280;55907;50.806;12.882;2023-06-01T16:29:39;972.9;;;23.2;31.9
68873;BME280;55907;50.806;12.882;2023-06-01T16:32:40;972.8;;;23.0;32.3
68873;BME280;55907;50.806;12.882;2023-06-01T16:35:42;972.9;;;23.0;32.5
68873;BME280;55907;50.806;12.882;2023-06-01T16:38:43;972.8;;;22.9;33.7
68873;BME280;55907;50.806;12.882;2023-06-01T16:41:44;972.8;;;22.9;33.4
68873;BME280;55907;50.806;12.882;2023-06-01T16:44:46;972.8;;;22.7;31.5
68873;BME280;55907;50.806;12.882;2023-06-01T16:50:49;972.7;;;22.7;31.2
68873;BME280;55907;50.806;12.882;2023-06-01T16:53:50;972.7;;;22.8;31.4
68873;BME280;55907;50.806;12.882;2023-06-01T16:56:51;972.7;;;22.7;32.0
68873;BME280;55907;50.806;12.882;2023-06-01T16:59:53;972.7;;;22.6;33.2
68873;BME280;55907;50.806;12.882;2023-06-01T17:02:54;972.7;;;22.4;34.2
68873;BME280;55907;50.806;12.882;2023-06-01T17:05:56;972.7;;;22.4;34.9
68873;BME280;55907;50.806;12.882;2023-06-01T17:08:57;972.7;;;22.4;35.5
68873;BME280;55907;50.806;12.882;2023-06-01T17:15:00;972.6;;;22.3;36.6
68873;BME280;55907;50.806;12.882;2023-06-01T17:18:01;972.6;;;22.1;36.5
68873;BME280;55907;50.806;12.882;2023-06-01T17:21:03;972.7;;;22.0;36.9
68873;BME280;55907;50.806;12.882;2023-06-01T17:24:04;972.6;;;21.9;37.0
68873;BME280;55907;50.806;12.882;2023-06-01T17:27:06;972.6;;;21.8;38.2
68873;BME280;55907;50.806;12.882;2023-06-01T17:30:08;972.6;;;21.8;38.4
68873;BME280;55907;50.806;12.882;2023-06-01T17:33:09;972.6;;;21.7;38.4
68873;BME280;55907;50.806;12.882;2023-06-01T17:36:10;972.6;;;21.7;38.6
68873;BME280;55907;50.806;12.882;2023-06-01T17:39:11;972.6;;;21.6;39.1
68873;BME280;55907;50.806;12.882;2023-06-01T17:42:13;972.6;;;21.6;39.3
68873;BME280;55907;50.806;12.882;2023-06-01T17:45:14;972.6;;;21.6;39.9
68873;BME280;55907;50.806;12.882;2023-06-01T17:48:15;972.6;;;21.5;40.4
68873;BME280;55907;50.806;12.882;2023-06-01T17:51:17;972.7;;;21.5;41.5
68873;BME280;55907;50.806;12.882;2023-06-01T17:54:18;972.7;;;21.4;43.0
68873;BME280;55907;50.806;12.882;2023-06-01T17:57:20;972.7;;;21.2;44.2
68873;BME280;55907;50.806;12.882;2023-06-01T18:00:21;972.7;;;21.1;45.4
68873;BME280;55907;50.806;12.882;2023-06-01T18:03:23;972.7;;;21.0;46.4
68873;BME280;55907;50.806;12.882;2023-06-01T18:06:24;972.7;;;20.9;47.0
68873;BME280;55907;50.806;12.882;2023-06-01T18:09:25;972.7;;;20.7;47.4
68873;BME280;55907;50.806;12.882;2023-06-01T18:12:27;972.7;;;20.6;47.6
68873;BME280;55907;50.806;12.882;2023-06-01T18:15:28;972.6;;;20.5;47.8
68873;BME280;55907;50.806;12.882;2023-06-01T18:18:30;972.6;;;20.4;47.8
68873;BME280;55907;50.806;12.882;2023-06-01T18:21:31;972.7;;;20.2;48.4
68873;BME280;55907;50.806;12.882;2023-06-01T18:24:33;972.7;;;20.1;48.5
68873;BME280;55907;50.806;12.882;2023-06-01T18:27:34;972.8;;;20.0;48.6
68873;BME280;55907;50.806;12.882;2023-06-01T18:30:36;972.7;;;19.9;49.1
68873;BME280;55907;50.806;12.882;2023-06-01T18:33:37;972.8;;;19.7;49.4
68873;BME280;55907;50.806;12.882;2023-06-01T18:36:38;972.8;;;19.6;50.1
68873;BME280;55907;50.806;12.882;2023-06-01T18:39:40;972.8;;;19.5;50.2
68873;BME280;55907;50.806;12.882;2023-06-01T18:45:43;972.9;;;19.3;50.9
68873;BME280;55907;50.806;12.882;2023-06-01T18:48:44;972.9;;;19.2;51.3
68873;BME280;55907;50.806;12.882;2023-06-01T18:54:45;unavailable;;;unavailable;unavailable
68873;BME280;55907;50.806;12.882;2023-06-01T18:54:46;972.9;;;18.9;52.2
68873;BME280;55907;50.806;12.882;2023-06-01T18:57:48;972.9;;;18.9;52.7
68873;BME280;55907;50.806;12.882;2023-06-01T19:00:50;973.0;;;18.7;53.2
68873;BME280;55907;50.806;12.882;2023-06-01T19:03:51;973.0;;;18.6;52.4
68873;BME280;55907;50.806;12.882;2023-06-01T19:06:53;973.0;;;18.4;53.6
68873;BME280;55907;50.806;12.882;2023-06-01T19:12:59;973.1;;;18.1;54.0
68873;BME280;55907;50.806;12.882;2023-06-01T19:15:58;973.1;;;17.9;54.2
68873;BME280;55907;50.806;12.882;2023-06-01T19:18:59;973.2;;;17.8;54.4
68873;BME280;55907;50.806;12.882;2023-06-01T19:22:00;973.2;;;17.7;54.4
68873;BME280;55907;50.806;12.882;2023-06-01T19:25:02;973.2;;;17.6;54.1
68873;BME280;55907;50.806;12.882;2023-06-01T19:28:03;973.2;;;17.5;55.1
68873;BME280;55907;50.806;12.882;2023-06-01T19:31:05;973.3;;;17.4;55.7
68873;BME280;55907;50.806;12.882;2023-06-01T19:37:08;973.3;;;17.0;56.8
68873;BME280;55907;50.806;12.882;2023-06-01T19:40:09;973.3;;;17.0;57.0
68873;BME280;55907;50.806;12.882;2023-06-01T19:43:29;973.3;;;16.9;56.8
68873;BME280;55907;50.806;12.882;2023-06-01T19:46:17;973.3;;;16.8;57.1
68873;BME280;55907;50.806;12.882;2023-06-01T19:49:14;973.4;;;16.8;57.3
68873;BME280;55907;50.806;12.882;2023-06-01T19:55:17;973.5;;;16.6;58.7
68873;BME280;55907;50.806;12.882;2023-06-01T20:01:20;973.5;;;16.5;60.5
68873;BME280;55907;50.806;12.882;2023-06-01T20:04:21;973.5;;;16.4;61.8
68873;BME280;55907;50.806;12.882;2023-06-01T20:07:22;973.6;;;16.3;62.3
68873;BME280;55907;50.806;12.882;2023-06-01T20:10:25;973.6;;;16.2;62.8
68873;BME280;55907;50.806;12.882;2023-06-01T20:13:25;973.6;;;16.1;63.4
68873;BME280;55907;50.806;12.882;2023-06-01T20:25:33;973.6;;;15.8;64.0
68873;BME280;55907;50.806;12.882;2023-06-01T20:28:45;973.6;;;15.8;64.0
68873;BME280;55907;50.806;12.882;2023-06-01T20:34:36;973.7;;;15.6;65.1
68873;BME280;55907;50.806;12.882;2023-06-01T20:37:37;973.7;;;15.6;64.8
68873;BME280;55907;50.806;12.882;2023-06-01T20:49:43;973.7;;;15.1;68.0
68873;BME280;55907;50.806;12.882;2023-06-01T20:55:46;973.7;;;14.9;69.2
68873;BME280;55907;50.806;12.882;2023-06-01T20:58:48;973.8;;;14.8;69.7
68873;BME280;55907;50.806;12.882;2023-06-01T21:01:50;973.7;;;14.7;70.3
68873;BME280;55907;50.806;12.882;2023-06-01T21:07:52;973.8;;;14.5;69.5
68873;BME280;55907;50.806;12.882;2023-06-01T21:10:54;973.8;;;14.5;69.6
68873;BME280;55907;50.806;12.882;2023-06-01T21:13:55;973.9;;;14.4;69.2
68873;BME280;55907;50.806;12.882;2023-06-01T21:16:57;973.9;;;14.3;70.0
68873;BME280;55907;50.806;12.882;2023-06-01T21:23:00;973.9;;;14.3;70.9
68873;BME280;55907;50.806;12.882;2023-06-01T21:26:01;974.0;;;14.2;71.0